sensor_id;sensor_type;location;lat;lon;timestamp;temperature;humidity
2158;DHT22;41972;48.774;9.282;2023-08-21T00:02:17;22.50;99.90
2158;DHT22;41972;48.774;9.282;2023-08-21T00:04:42;22.30;99.90
2158;DHT22;41972;48.774;9.282;2023-08-21T00:07:08;22.30;99.90
2158;DHT22;41972;48.774;9.282;2023-08-21T00:09:34;22.40;99.90
2158;DHT22;41972;48.774;9.282;2023-08-21T00:12:00;22.40;99.90
2158;DHT22;41972;48.774;9.282;2023-08-21T00:14:26;22.30;99.90
2158;DHT22;41972;48.774;9.282;2023-08-21T00:16:51;22.20;99.90
2158;DHT22;41972;48.774;9.282;2023-08-21T00:19:17;22.20;99.90
2158;DHT22;41972;48.774;9.282;2023-08-21T00:21:43;22.20;99.90
2158;DHT22;41972;48.774;9.282;2023-08-21T00:24:08;22.30;99.90
2158;DHT22;41972;48.774;9.282;2023-08-21T00:26:34;22.40;99.90
2158;DHT22;41972;48.774;9.282;2023-08-21T00:29:00;22.40;99.90
2158;DHT22;41972;48.774;9.282;2023-08-21T00:31:25;22.20;99.90
2158;DHT22;41972;48.774;9.282;2023-08-21T00:33:51;22.30;99.90
2158;DHT22;41972;48.774;9.282;2023-08-21T00:36:16;22.30;99.90
2158;DHT22;41972;48.774;9.282;2023-08-21T00:38:42;22.30;99.90
2158;DHT22;41972;48.774;9.282;2023-08-21T00:41:08;22.50;99.90
2158;DHT22;41972;48.774;9.282;2023-08-21T00:43:34;22.50;99.90
2158;DHT22;41972;48.774;9.282;2023-08-21T00:46:00;22.60;99.90
2158;DHT22;41972;48.774;9.282;2023-08-21T00:48:25;22.20;99.90
2158;DHT22;41972;48.774;9.282;2023-08-21T00:50:51;21.90;99.90
2158;DHT22;41972;48.774;9.282;2023-08-21T00:53:17;21.70;99.90
2158;DHT22;41972;48.774;9.282;2023-08-21T00:55:43;21.50;99.90
2158;DHT22;41972;48.774;9.282;2023-08-21T00:58:10;21.60;99.90
2158;DHT22;41972;48.774;9.282;2023-08-21T01:00:37;21.70;99.90
2158;DHT22;41972;48.774;9.282;2023-08-21T01:03:03;21.60;99.90
2158;DHT22;41972;48.774;9.282;2023-08-21T01:05:29;21.80;99.90
2158;DHT22;41972;48.774;9.282;2023-08-21T01:08:02;21.70;99.90
2158;DHT22;41972;48.774;9.282;2023-08-21T01:10:45;21.40;99.90
2158;DHT22;41972;48.774;9.282;2023-08-21T01:16:11;21.50;99.90
2158;DHT22;41972;48.774;9.282;2023-08-21T01:18:39;21.40;99.90
2158;DHT22;41972;48.774;9.282;2023-08-21T01:21:05;21.20;99.90
2158;DHT22;41972;48.774;9.282;2023-08-21T01:23:35;21.20;99.90
2158;DHT22;41972;48.774;9.282;2023-08-21T01:26:01;21.30;99.90
2158;DHT22;41972;48.774;9.282;2023-08-21T01:28:27;21.50;99.90
2158;DHT22;41972;48.774;9.282;2023-08-21T01:31:02;21.30;99.90
2158;DHT22;41972;48.774;9.282;2023-08-21T01:33:29;21.10;99.90
2158;DHT22;41972;48.774;9.282;2023-08-21T01:35:57;21.10;99.90
2158;DHT22;41972;48.774;9.282;2023-08-21T01:38:24;21.30;99.90
2158;DHT22;41972;48.774;9.282;2023-08-21T01:40:50;21.20;99.90
2158;DHT22;41972;48.774;9.282;2023-08-21T01:43:15;21.10;99.90
2158;DHT22;41972;48.774;9.282;2023-08-21T01:45:41;21.10;99.90
2158;DHT22;41972;48.774;9.282;2023-08-21T01:48:06;21.20;99.90
2158;DHT22;41972;48.774;9.282;2023-08-21T01:50:32;21.00;99.90
2158;DHT22;41972;48.774;9.282;2023-08-21T01:52:57;21.10;99.90
2158;DHT22;41972;48.774;9.282;2023-08-21T01:55:23;21.10;99.90
2158;DHT22;41972;48.774;9.282;2023-08-21T01:57:49;20.90;99.90
2158;DHT22;41972;48.774;9.282;2023-08-21T02:00:14;20.80;99.90
2158;DHT22;41972;48.774;9.282;2023-08-21T02:02:40;21.00;99.90
2158;DHT22;41972;48.774;9.282;2023-08-21T02:05:06;21.00;99.90
2158;DHT22;41972;48.774;9.282;2023-08-21T02:07:32;20.90;99.90
2158;DHT22;41972;48.774;9.282;2023-08-21T02:09:57;20.80;99.90
2158;DHT22;41972;48.774;9.282;2023-08-21T02:12:23;20.80;99.90
2158;DHT22;41972;48.774;9.282;2023-08-21T02:14:48;20.80;99.90
2158;DHT22;41972;48.774;9.282;2023-08-21T02:17:14;20.80;99.90
2158;DHT22;41972;48.774;9.282;2023-08-21T02:19:39;20.80;99.90
2158;DHT22;41972;48.774;9.282;2023-08-21T02:22:05;20.80;99.90
2158;DHT22;41972;48.774;9.282;2023-08-21T02:24:31;20.90;99.90
2158;DHT22;41972;48.774;9.282;2023-08-21T02:26:56;20.80;99.90
2158;DHT22;41972;48.774;9.282;2023-08-21T02:29:22;20.70;99.90
2158;DHT22;41972;48.774;9.282;2023-08-21T02:31:47;20.80;99.90
2158;DHT22;41972;48.774;9.282;2023-08-21T02:34:13;20.70;99.90
2158;DHT22;41972;48.774;9.282;2023-08-21T02:36:38;20.60;99.90
2158;DHT22;41972;48.774;9.282;2023-08-21T02:39:04;20.60;99.90
2158;DHT22;41972;48.774;9.282;2023-08-21T02:41:30;20.60;99.90
2158;DHT22;41972;48.774;9.282;2023-08-21T02:43:55;20.50;99.90
2158;DHT22;41972;48.774;9.282;2023-08-21T02:46:21;20.70;99.90
2158;DHT22;41972;48.774;9.282;2023-08-21T02:48:47;20.70;99.90
2158;DHT22;41972;48.774;9.282;2023-08-21T02:51:12;20.60;99.90
2158;DHT22;41972;48.774;9.282;2023-08-21T02:53:38;20.50;99.90
2158;DHT22;41972;48.774;9.282;2023-08-21T02:56:03;20.50;99.90
2158;DHT22;41972;48.774;9.282;2023-08-21T02:58:29;20.50;99.90
2158;DHT22;41972;48.774;9.282;2023-08-21T03:00:54;20.50;99.90
2158;DHT22;41972;48.774;9.282;2023-08-21T03:03:20;20.50;99.90
2158;DHT22;41972;48.774;9.282;2023-08-21T03:05:45;20.40;99.90
2158;DHT22;41972;48.774;9.282;2023-08-21T03:08:11;20.40;99.90
2158;DHT22;41972;48.774;9.282;2023-08-21T03:10:36;20.40;99.90
2158;DHT22;41972;48.774;9.282;2023-08-21T03:13:02;20.50;99.90
2158;DHT22;41972;48.774;9.282;2023-08-21T03:15:28;20.70;99.90
2158;DHT22;41972;48.774;9.282;2023-08-21T03:17:54;20.50;99.90
2158;DHT22;41972;48.774;9.282;2023-08-21T03:20:20;20.40;99.90
2158;DHT22;41972;48.774;9.282;2023-08-21T03:22:46;20.30;99.90
2158;DHT22;41972;48.774;9.282;2023-08-21T03:25:12;20.30;99.90
2158;DHT22;41972;48.774;9.282;2023-08-21T03:27:37;20.30;99.90
2158;DHT22;41972;48.774;9.282;2023-08-21T03:30:06;20.20;99.90
2158;DHT22;41972;48.774;9.282;2023-08-21T03:32:32;20.20;99.90
2158;DHT22;41972;48.774;9.282;2023-08-21T03:34:58;20.10;99.90
2158;DHT22;41972;48.774;9.282;2023-08-21T03:37:23;20.00;99.90
2158;DHT22;41972;48.774;9.282;2023-08-21T03:39:49;20.00;99.90
2158;DHT22;41972;48.774;9.282;2023-08-21T03:42:15;19.90;99.90
2158;DHT22;41972;48.774;9.282;2023-08-21T03:44:40;19.80;99.90
2158;DHT22;41972;48.774;9.282;2023-08-21T03:47:06;19.90;99.90
2158;DHT22;41972;48.774;9.282;2023-08-21T03:49:32;20.00;99.90
2158;DHT22;41972;48.774;9.282;2023-08-21T03:51:57;20.00;99.90
2158;DHT22;41972;48.774;9.282;2023-08-21T03:54:23;19.80;99.90
2158;DHT22;41972;48.774;9.282;2023-08-21T03:56:48;19.80;99.90
2158;DHT22;41972;48.774;9.282;2023-08-21T03:59:14;19.90;99.90
2158;DHT22;41972;48.774;9.282;2023-08-21T04:01:40;20.00;99.90
2158;DHT22;41972;48.774;9.282;2023-08-21T04:04:05;20.20;99.90
2158;DHT22;41972;48.774;9.282;2023-08-21T04:06:31;20.00;99.90
2158;DHT22;41972;48.774;9.282;2023-08-21T04:08:56;19.80;99.90
2158;DHT22;41972;48.774;9.282;2023-08-21T04:11:22;19.80;99.90
2158;DHT22;41972;48.774;9.282;2023-08-21T04:13:47;19.80;99.90
2158;DHT22;41972;48.774;9.282;2023-08-21T04:16:13;19.80;99.90
2158;DHT22;41972;48.774;9.282;2023-08-21T04:18:39;19.90;99.90
2158;DHT22;41972;48.774;9.282;2023-08-21T04:21:05;19.90;99.90
2158;DHT22;41972;48.774;9.282;2023-08-21T04:23:31;19.80;99.90
2158;DHT22;41972;48.774;9.282;2023-08-21T04:26:01;19.70;99.90
2158;DHT22;41972;48.774;9.282;2023-08-21T04:28:27;19.80;99.90
2158;DHT22;41972;48.774;9.282;2023-08-21T04:30:53;19.80;99.90
2158;DHT22;41972;48.774;9.282;2023-08-21T04:33:19;19.90;99.90
2158;DHT22;41972;48.774;9.282;2023-08-21T04:35:44;19.80;99.90
2158;DHT22;41972;48.774;9.282;2023-08-21T04:38:10;19.80;99.90
2158;DHT22;41972;48.774;9.282;2023-08-21T04:40:35;19.90;99.90
2158;DHT22;41972;48.774;9.282;2023-08-21T04:43:02;20.00;99.90
2158;DHT22;41972;48.774;9.282;2023-08-21T04:45:27;19.90;99.90
2158;DHT22;41972;48.774;9.282;2023-08-21T04:47:53;19.90;99.90
2158;DHT22;41972;48.774;9.282;2023-08-21T04:50:18;19.90;99.90
2158;DHT22;41972;48.774;9.282;2023-08-21T04:52:45;20.00;99.90
2158;DHT22;41972;48.774;9.282;2023-08-21T04:55:11;19.90;99.90
2158;DHT22;41972;48.774;9.282;2023-08-21T04:57:36;20.00;99.90
2158;DHT22;41972;48.774;9.282;2023-08-21T05:00:02;20.10;99.90
2158;DHT22;41972;48.774;9.282;2023-08-21T05:02:29;20.00;99.90
2158;DHT22;41972;48.774;9.282;2023-08-21T05:04:54;20.00;99.90
2158;DHT22;41972;48.774;9.282;2023-08-21T05:07:20;20.10;99.90
2158;DHT22;41972;48.774;9.282;2023-08-21T05:09:46;20.20;99.90
2158;DHT22;41972;48.774;9.282;2023-08-21T05:12:11;20.30;99.90
2158;DHT22;41972;48.774;9.282;2023-08-21T05:14:37;20.40;99.90
2158;DHT22;41972;48.774;9.282;2023-08-21T05:17:03;20.60;99.90
2158;DHT22;41972;48.774;9.282;2023-08-21T05:19:29;20.70;99.90
2158;DHT22;41972;48.774;9.282;2023-08-21T05:21:55;20.80;99.90
2158;DHT22;41972;48.774;9.282;2023-08-21T05:24:20;21.50;99.90
2158;DHT22;41972;48.774;9.282;2023-08-21T05:26:46;22.30;99.90
2158;DHT22;41972;48.774;9.282;2023-08-21T05:29:11;23.70;99.90
2158;DHT22;41972;48.774;9.282;2023-08-21T05:31:37;24.90;99.90
2158;DHT22;41972;48.774;9.282;2023-08-21T05:34:03;26.50;99.90
2158;DHT22;41972;48.774;9.282;2023-08-21T05:36:29;26.90;99.90
2158;DHT22;41972;48.774;9.282;2023-08-21T05:38:56;27.50;99.90
2158;DHT22;41972;48.774;9.282;2023-08-21T05:41:22;26.60;99.90
2158;DHT22;41972;48.774;9.282;2023-08-21T05:43:47;25.50;99.90
2158;DHT22;41972;48.774;9.282;2023-08-21T05:46:14;25.10;99.90
2158;DHT22;41972;48.774;9.282;2023-08-21T05:48:39;25.10;99.90
2158;DHT22;41972;48.774;9.282;2023-08-21T05:51:05;25.00;99.90
2158;DHT22;41972;48.774;9.282;2023-08-21T05:53:31;25.10;99.90
2158;DHT22;41972;48.774;9.282;2023-08-21T05:55:56;25.20;99.90
2158;DHT22;41972;48.774;9.282;2023-08-21T05:58:22;25.60;99.90
2158;DHT22;41972;48.774;9.282;2023-08-21T06:00:48;26.30;99.90
2158;DHT22;41972;48.774;9.282;2023-08-21T06:03:14;27.10;99.90
2158;DHT22;41972;48.774;9.282;2023-08-21T06:05:39;28.80;99.90
2158;DHT22;41972;48.774;9.282;2023-08-21T06:08:05;29.70;99.90
2158;DHT22;41972;48.774;9.282;2023-08-21T06:10:31;30.10;99.90
2158;DHT22;41972;48.774;9.282;2023-08-21T06:12:57;30.20;99.90
2158;DHT22;41972;48.774;9.282;2023-08-21T06:15:22;30.60;99.90
2158;DHT22;41972;48.774;9.282;2023-08-21T06:17:48;30.20;99.90
2158;DHT22;41972;48.774;9.282;2023-08-21T06:20:13;28.80;99.90
2158;DHT22;41972;48.774;9.282;2023-08-21T06:22:39;28.20;99.90
2158;DHT22;41972;48.774;9.282;2023-08-21T06:25:05;28.10;99.90
2158;DHT22;41972;48.774;9.282;2023-08-21T06:27:31;28.70;99.90
2158;DHT22;41972;48.774;9.282;2023-08-21T06:29:56;30.70;99.90
2158;DHT22;41972;48.774;9.282;2023-08-21T06:32:22;29.00;99.90
2158;DHT22;41972;48.774;9.282;2023-08-21T06:34:48;28.30;99.90
2158;DHT22;41972;48.774;9.282;2023-08-21T06:37:14;27.70;99.90
2158;DHT22;41972;48.774;9.282;2023-08-21T06:39:39;29.40;99.90
2158;DHT22;41972;48.774;9.282;2023-08-21T06:42:05;31.30;99.90
2158;DHT22;41972;48.774;9.282;2023-08-21T06:44:31;30.60;99.90
2158;DHT22;41972;48.774;9.282;2023-08-21T06:46:57;29.80;99.90
2158;DHT22;41972;48.774;9.282;2023-08-21T06:49:23;29.00;99.90
2158;DHT22;41972;48.774;9.282;2023-08-21T06:51:49;28.50;99.90
2158;DHT22;41972;48.774;9.282;2023-08-21T06:54:15;29.80;99.90
2158;DHT22;41972;48.774;9.282;2023-08-21T06:56:40;29.30;99.90
2158;DHT22;41972;48.774;9.282;2023-08-21T06:59:06;30.30;99.90
2158;DHT22;41972;48.774;9.282;2023-08-21T07:01:31;32.70;99.90
2158;DHT22;41972;48.774;9.282;2023-08-21T07:03:58;32.70;99.90
2158;DHT22;41972;48.774;9.282;2023-08-21T07:06:27;33.10;99.90
2158;DHT22;41972;48.774;9.282;2023-08-21T07:08:53;34.10;99.90
2158;DHT22;41972;48.774;9.282;2023-08-21T07:11:19;34.40;99.90
2158;DHT22;41972;48.774;9.282;2023-08-21T07:13:44;35.70;99.90
2158;DHT22;41972;48.774;9.282;2023-08-21T07:16:10;34.90;99.90
2158;DHT22;41972;48.774;9.282;2023-08-21T07:18:35;32.30;99.90
2158;DHT22;41972;48.774;9.282;2023-08-21T07:21:02;31.40;99.90
2158;DHT22;41972;48.774;9.282;2023-08-21T07:23:30;32.60;99.90
2158;DHT22;41972;48.774;9.282;2023-08-21T07:25:55;33.10;99.90
2158;DHT22;41972;48.774;9.282;2023-08-21T07:28:21;34.00;99.90
2158;DHT22;41972;48.774;9.282;2023-08-21T07:30:46;33.80;99.90
2158;DHT22;41972;48.774;9.282;2023-08-21T07:33:12;34.70;99.90
2158;DHT22;41972;48.774;9.282;2023-08-21T07:35:37;34.30;99.90
2158;DHT22;41972;48.774;9.282;2023-08-21T07:38:03;35.10;99.90
2158;DHT22;41972;48.774;9.282;2023-08-21T07:40:29;34.80;99.90
2158;DHT22;41972;48.774;9.282;2023-08-21T07:42:55;33.30;99.90
2158;DHT22;41972;48.774;9.282;2023-08-21T07:45:21;33.80;99.90
2158;DHT22;41972;48.774;9.282;2023-08-21T07:47:47;33.40;99.90
2158;DHT22;41972;48.774;9.282;2023-08-21T07:50:13;35.80;99.90
2158;DHT22;41972;48.774;9.282;2023-08-21T07:52:42;36.80;99.90
2158;DHT22;41972;48.774;9.282;2023-08-21T07:55:08;33.10;99.90
2158;DHT22;41972;48.774;9.282;2023-08-21T07:57:33;35.40;99.90
2158;DHT22;41972;48.774;9.282;2023-08-21T07:59:59;36.90;99.90
2158;DHT22;41972;48.774;9.282;2023-08-21T08:02:24;36.40;99.90
2158;DHT22;41972;48.774;9.282;2023-08-21T08:04:50;38.40;84.90
2158;DHT22;41972;48.774;9.282;2023-08-21T08:07:16;36.90;90.00
2158;DHT22;41972;48.774;9.282;2023-08-21T08:09:41;35.90;86.00
2158;DHT22;41972;48.774;9.282;2023-08-21T08:12:07;35.90;89.80
2158;DHT22;41972;48.774;9.282;2023-08-21T08:14:32;37.60;83.70
2158;DHT22;41972;48.774;9.282;2023-08-21T08:16:58;34.70;88.50
2158;DHT22;41972;48.774;9.282;2023-08-21T08:19:24;34.30;87.90
2158;DHT22;41972;48.774;9.282;2023-08-21T08:21:49;32.60;92.00
2158;DHT22;41972;48.774;9.282;2023-08-21T08:24:15;34.00;90.80
2158;DHT22;41972;48.774;9.282;2023-08-21T08:26:41;36.60;87.40
2158;DHT22;41972;48.774;9.282;2023-08-21T08:29:08;38.70;76.60
2158;DHT22;41972;48.774;9.282;2023-08-21T08:31:36;40.90;60.30
2158;DHT22;41972;48.774;9.282;2023-08-21T08:34:04;41.20;50.80
2158;DHT22;41972;48.774;9.282;2023-08-21T08:36:29;42.20;35.10
2158;DHT22;41972;48.774;9.282;2023-08-21T08:38:56;40.30;38.00
2158;DHT22;41972;48.774;9.282;2023-08-21T08:41:41;40.80;39.80
2158;DHT22;41972;48.774;9.282;2023-08-21T08:44:09;40.20;40.60
2158;DHT22;41972;48.774;9.282;2023-08-21T08:46:35;40.30;39.00
2158;DHT22;41972;48.774;9.282;2023-08-21T08:49:03;38.60;34.30
2158;DHT22;41972;48.774;9.282;2023-08-21T08:51:30;38.80;41.60
2158;DHT22;41972;48.774;9.282;2023-08-21T08:53:58;42.40;28.40
2158;DHT22;41972;48.774;9.282;2023-08-21T08:56:24;42.90;26.40
2158;DHT22;41972;48.774;9.282;2023-08-21T08:58:51;41.10;26.20
2158;DHT22;41972;48.774;9.282;2023-08-21T09:01:16;37.80;30.20
2158;DHT22;41972;48.774;9.282;2023-08-21T09:03:42;36.90;32.00
2158;DHT22;41972;48.774;9.282;2023-08-21T09:06:07;39.00;33.50
2158;DHT22;41972;48.774;9.282;2023-08-21T09:08:33;39.40;29.80
2158;DHT22;41972;48.774;9.282;2023-08-21T09:11:01;41.00;26.20
2158;DHT22;41972;48.774;9.282;2023-08-21T09:13:29;42.90;21.30
2158;DHT22;41972;48.774;9.282;2023-08-21T09:15:56;40.70;24.20
2158;DHT22;41972;48.774;9.282;2023-08-21T09:18:22;40.60;27.20
2158;DHT22;41972;48.774;9.282;2023-08-21T09:20:48;42.20;20.20
2158;DHT22;41972;48.774;9.282;2023-08-21T09:23:15;43.30;17.60
2158;DHT22;41972;48.774;9.282;2023-08-21T09:25:43;43.80;14.70
2158;DHT22;41972;48.774;9.282;2023-08-21T09:28:10;39.70;16.40
2158;DHT22;41972;48.774;9.282;2023-08-21T09:33:13;38.30;22.80
2158;DHT22;41972;48.774;9.282;2023-08-21T09:35:39;40.10;20.80
2158;DHT22;41972;48.774;9.282;2023-08-21T09:38:07;39.60;17.80
2158;DHT22;41972;48.774;9.282;2023-08-21T09:40:33;41.80;19.10
2158;DHT22;41972;48.774;9.282;2023-08-21T09:42:59;42.80;16.10
2158;DHT22;41972;48.774;9.282;2023-08-21T09:45:27;39.50;17.50
2158;DHT22;41972;48.774;9.282;2023-08-21T09:47:54;40.20;16.80
2158;DHT22;41972;48.774;9.282;2023-08-21T09:50:20;40.60;14.50
2158;DHT22;41972;48.774;9.282;2023-08-21T09:52:46;40.80;15.50
2158;DHT22;41972;48.774;9.282;2023-08-21T09:55:14;40.90;14.10
2158;DHT22;41972;48.774;9.282;2023-08-21T09:57:41;40.40;13.60
2158;DHT22;41972;48.774;9.282;2023-08-21T10:00:10;38.50;15.80
2158;DHT22;41972;48.774;9.282;2023-08-21T10:02:51;37.00;18.40
2158;DHT22;41972;48.774;9.282;2023-08-21T10:05:17;39.30;18.10
2158;DHT22;41972;48.774;9.282;2023-08-21T10:07:46;39.90;15.30
2158;DHT22;41972;48.774;9.282;2023-08-21T10:10:12;37.10;17.80
2158;DHT22;41972;48.774;9.282;2023-08-21T10:12:38;37.00;18.30
2158;DHT22;41972;48.774;9.282;2023-08-21T10:15:05;38.50;17.20
2158;DHT22;41972;48.774;9.282;2023-08-21T10:17:32;39.20;17.70
2158;DHT22;41972;48.774;9.282;2023-08-21T10:20:06;38.40;14.90
2158;DHT22;41972;48.774;9.282;2023-08-21T10:22:43;37.30;18.00
2158;DHT22;41972;48.774;9.282;2023-08-21T10:25:20;37.40;20.10
2158;DHT22;41972;48.774;9.282;2023-08-21T10:27:50;37.60;16.40
2158;DHT22;41972;48.774;9.282;2023-08-21T10:30:23;36.90;17.90
2158;DHT22;41972;48.774;9.282;2023-08-21T10:32:51;37.60;16.30
2158;DHT22;41972;48.774;9.282;2023-08-21T10:35:30;38.30;14.10
2158;DHT22;41972;48.774;9.282;2023-08-21T10:40:35;39.80;12.70
2158;DHT22;41972;48.774;9.282;2023-08-21T10:43:01;41.10;10.50
2158;DHT22;41972;48.774;9.282;2023-08-21T10:45:30;37.30;14.30
2158;DHT22;41972;48.774;9.282;2023-08-21T10:47:57;39.20;14.90
2158;DHT22;41972;48.774;9.282;2023-08-21T10:50:23;41.50;13.40
2158;DHT22;41972;48.774;9.282;2023-08-21T10:52:51;43.20;7.30
2158;DHT22;41972;48.774;9.282;2023-08-21T10:55:17;40.80;9.80
2158;DHT22;41972;48.774;9.282;2023-08-21T10:57:47;42.20;8.60
2158;DHT22;41972;48.774;9.282;2023-08-21T11:00:15;40.60;8.70
2158;DHT22;41972;48.774;9.282;2023-08-21T11:02:46;37.80;13.00
2158;DHT22;41972;48.774;9.282;2023-08-21T11:05:13;38.30;11.70
2158;DHT22;41972;48.774;9.282;2023-08-21T11:07:46;37.00;13.40
2158;DHT22;41972;48.774;9.282;2023-08-21T11:10:14;37.80;11.00
2158;DHT22;41972;48.774;9.282;2023-08-21T11:12:54;36.50;12.20
2158;DHT22;41972;48.774;9.282;2023-08-21T11:15:21;34.30;16.60
2158;DHT22;41972;48.774;9.282;2023-08-21T11:18:02;34.00;17.10
2158;DHT22;41972;48.774;9.282;2023-08-21T11:20:32;34.50;18.40
2158;DHT22;41972;48.774;9.282;2023-08-21T11:23:03;34.40;19.20
2158;DHT22;41972;48.774;9.282;2023-08-21T11:25:32;34.20;23.70
2158;DHT22;41972;48.774;9.282;2023-08-21T11:27:58;33.80;24.70
2158;DHT22;41972;48.774;9.282;2023-08-21T11:30:24;34.10;21.60
2158;DHT22;41972;48.774;9.282;2023-08-21T11:33:07;34.20;21.30
2158;DHT22;41972;48.774;9.282;2023-08-21T11:35:33;33.90;25.80
2158;DHT22;41972;48.774;9.282;2023-08-21T11:37:59;33.10;25.90
2158;DHT22;41972;48.774;9.282;2023-08-21T11:40:24;33.40;23.90
2158;DHT22;41972;48.774;9.282;2023-08-21T11:42:52;33.20;28.50
2158;DHT22;41972;48.774;9.282;2023-08-21T11:45:20;32.70;26.90
2158;DHT22;41972;48.774;9.282;2023-08-21T11:47:46;32.30;30.50
2158;DHT22;41972;48.774;9.282;2023-08-21T11:50:12;32.30;38.70
2158;DHT22;41972;48.774;9.282;2023-08-21T11:52:40;32.30;39.70
2158;DHT22;41972;48.774;9.282;2023-08-21T11:55:10;32.20;35.80
2158;DHT22;41972;48.774;9.282;2023-08-21T11:57:48;32.00;41.80
2158;DHT22;41972;48.774;9.282;2023-08-21T12:00:14;32.90;39.60
2158;DHT22;41972;48.774;9.282;2023-08-21T12:02:53;32.50;40.30
2158;DHT22;41972;48.774;9.282;2023-08-21T12:05:19;32.50;40.60
2158;DHT22;41972;48.774;9.282;2023-08-21T12:07:45;32.00;43.90
2158;DHT22;41972;48.774;9.282;2023-08-21T12:10:10;32.70;40.70
2158;DHT22;41972;48.774;9.282;2023-08-21T12:12:36;32.70;39.50
2158;DHT22;41972;48.774;9.282;2023-08-21T12:15:02;32.70;40.10
2158;DHT22;41972;48.774;9.282;2023-08-21T12:17:27;32.10;50.60
2158;DHT22;41972;48.774;9.282;2023-08-21T12:19:53;32.90;42.90
2158;DHT22;41972;48.774;9.282;2023-08-21T12:22:18;33.00;44.20
2158;DHT22;41972;48.774;9.282;2023-08-21T12:24:44;32.90;40.40
2158;DHT22;41972;48.774;9.282;2023-08-21T12:27:09;32.80;41.20
2158;DHT22;41972;48.774;9.282;2023-08-21T12:29:35;32.00;46.10
2158;DHT22;41972;48.774;9.282;2023-08-21T12:32:01;32.00;52.30
2158;DHT22;41972;48.774;9.282;2023-08-21T12:34:28;32.20;50.50
2158;DHT22;41972;48.774;9.282;2023-08-21T12:36:53;32.10;48.70
2158;DHT22;41972;48.774;9.282;2023-08-21T12:39:19;32.20;47.50
2158;DHT22;41972;48.774;9.282;2023-08-21T12:41:46;31.90;53.40
2158;DHT22;41972;48.774;9.282;2023-08-21T12:44:12;31.60;49.50
2158;DHT22;41972;48.774;9.282;2023-08-21T12:46:37;32.00;46.10
2158;DHT22;41972;48.774;9.282;2023-08-21T12:49:03;31.60;46.10
2158;DHT22;41972;48.774;9.282;2023-08-21T12:51:29;31.20;51.30
2158;DHT22;41972;48.774;9.282;2023-08-21T12:53:55;31.50;55.90
2158;DHT22;41972;48.774;9.282;2023-08-21T12:56:21;31.80;54.00
2158;DHT22;41972;48.774;9.282;2023-08-21T12:58:47;32.00;50.20
2158;DHT22;41972;48.774;9.282;2023-08-21T13:01:13;32.00;46.80
2158;DHT22;41972;48.774;9.282;2023-08-21T13:03:39;31.90;53.40
2158;DHT22;41972;48.774;9.282;2023-08-21T13:06:04;31.70;53.00
2158;DHT22;41972;48.774;9.282;2023-08-21T13:08:30;32.10;53.50
2158;DHT22;41972;48.774;9.282;2023-08-21T13:10:56;32.30;47.60
2158;DHT22;41972;48.774;9.282;2023-08-21T13:13:21;32.60;46.80
2158;DHT22;41972;48.774;9.282;2023-08-21T13:15:47;32.30;51.20
2158;DHT22;41972;48.774;9.282;2023-08-21T13:18:13;32.70;47.10
2158;DHT22;41972;48.774;9.282;2023-08-21T13:20:41;32.50;46.20
2158;DHT22;41972;48.774;9.282;2023-08-21T13:23:08;32.80;46.70
2158;DHT22;41972;48.774;9.282;2023-08-21T13:25:34;33.00;46.10
2158;DHT22;41972;48.774;9.282;2023-08-21T13:28:01;32.70;45.60
2158;DHT22;41972;48.774;9.282;2023-08-21T13:30:27;33.10;44.60
2158;DHT22;41972;48.774;9.282;2023-08-21T13:32:53;33.10;45.40
2158;DHT22;41972;48.774;9.282;2023-08-21T13:35:19;32.80;47.90
2158;DHT22;41972;48.774;9.282;2023-08-21T13:37:46;32.70;45.80
2158;DHT22;41972;48.774;9.282;2023-08-21T13:40:12;31.90;47.70
2158;DHT22;41972;48.774;9.282;2023-08-21T13:42:40;32.00;47.70
2158;DHT22;41972;48.774;9.282;2023-08-21T13:45:07;32.00;49.00
2158;DHT22;41972;48.774;9.282;2023-08-21T13:47:33;31.90;48.90
2158;DHT22;41972;48.774;9.282;2023-08-21T13:49:59;32.10;48.00
2158;DHT22;41972;48.774;9.282;2023-08-21T13:52:25;32.40;47.80
2158;DHT22;41972;48.774;9.282;2023-08-21T13:54:50;32.30;48.30
2158;DHT22;41972;48.774;9.282;2023-08-21T13:57:17;32.10;48.40
2158;DHT22;41972;48.774;9.282;2023-08-21T13:59:42;32.50;50.30
2158;DHT22;41972;48.774;9.282;2023-08-21T14:02:08;32.60;49.70
2158;DHT22;41972;48.774;9.282;2023-08-21T14:04:33;32.60;48.50
2158;DHT22;41972;48.774;9.282;2023-08-21T14:06:59;32.40;47.20
2158;DHT22;41972;48.774;9.282;2023-08-21T14:09:24;32.60;48.30
2158;DHT22;41972;48.774;9.282;2023-08-21T14:11:50;32.40;48.90
2158;DHT22;41972;48.774;9.282;2023-08-21T14:14:15;32.60;48.20
2158;DHT22;41972;48.774;9.282;2023-08-21T14:16:41;32.30;50.20
2158;DHT22;41972;48.774;9.282;2023-08-21T14:19:06;32.00;52.30
2158;DHT22;41972;48.774;9.282;2023-08-21T14:21:32;31.70;54.10
2158;DHT22;41972;48.774;9.282;2023-08-21T14:23:57;31.50;54.90
2158;DHT22;41972;48.774;9.282;2023-08-21T14:26:23;31.60;50.70
2158;DHT22;41972;48.774;9.282;2023-08-21T14:28:49;31.70;50.00
2158;DHT22;41972;48.774;9.282;2023-08-21T14:31:16;31.20;52.40
2158;DHT22;41972;48.774;9.282;2023-08-21T14:33:41;31.20;52.00
2158;DHT22;41972;48.774;9.282;2023-08-21T14:36:07;31.40;51.30
2158;DHT22;41972;48.774;9.282;2023-08-21T14:38:32;31.40;51.00
2158;DHT22;41972;48.774;9.282;2023-08-21T14:40:58;31.50;50.00
2158;DHT22;41972;48.774;9.282;2023-08-21T14:43:23;31.60;49.70
2158;DHT22;41972;48.774;9.282;2023-08-21T14:45:49;31.70;49.70
2158;DHT22;41972;48.774;9.282;2023-08-21T14:48:14;31.90;50.20
2158;DHT22;41972;48.774;9.282;2023-08-21T14:50:40;32.00;48.30
2158;DHT22;41972;48.774;9.282;2023-08-21T14:53:05;31.90;50.50
2158;DHT22;41972;48.774;9.282;2023-08-21T14:55:31;31.50;52.00
2158;DHT22;41972;48.774;9.282;2023-08-21T14:57:56;31.60;51.20
2158;DHT22;41972;48.774;9.282;2023-08-21T15:00:22;31.60;50.60
2158;DHT22;41972;48.774;9.282;2023-08-21T15:02:48;31.80;49.90
2158;DHT22;41972;48.774;9.282;2023-08-21T15:05:13;31.90;51.50
2158;DHT22;41972;48.774;9.282;2023-08-21T15:07:41;31.50;50.10
2158;DHT22;41972;48.774;9.282;2023-08-21T15:10:07;31.50;51.80
2158;DHT22;41972;48.774;9.282;2023-08-21T15:12:33;31.60;51.50
2158;DHT22;41972;48.774;9.282;2023-08-21T15:14:58;31.70;54.20
2158;DHT22;41972;48.774;9.282;2023-08-21T15:17:24;31.70;50.90
2158;DHT22;41972;48.774;9.282;2023-08-21T15:19:49;31.60;51.90
2158;DHT22;41972;48.774;9.282;2023-08-21T15:22:15;31.80;50.30
2158;DHT22;41972;48.774;9.282;2023-08-21T15:24:40;31.90;51.10
2158;DHT22;41972;48.774;9.282;2023-08-21T15:27:06;31.70;51.40
2158;DHT22;41972;48.774;9.282;2023-08-21T15:29:33;31.70;51.90
2158;DHT22;41972;48.774;9.282;2023-08-21T15:31:58;31.70;53.10
2158;DHT22;41972;48.774;9.282;2023-08-21T15:34:24;31.60;55.70
2158;DHT22;41972;48.774;9.282;2023-08-21T15:36:49;31.60;51.80
2158;DHT22;41972;48.774;9.282;2023-08-21T15:39:15;31.70;50.50
2158;DHT22;41972;48.774;9.282;2023-08-21T15:41:40;31.70;53.20
2158;DHT22;41972;48.774;9.282;2023-08-21T15:44:07;31.70;57.20
2158;DHT22;41972;48.774;9.282;2023-08-21T15:46:33;31.60;52.30
2158;DHT22;41972;48.774;9.282;2023-08-21T15:48:58;31.80;50.70
2158;DHT22;41972;48.774;9.282;2023-08-21T15:51:24;31.90;49.30